createdAt,value
2023-04-28T00:02:41.351Z,95478.63
2023-04-28T00:05:15.656Z,95476.88
2023-04-28T00:08:02.310Z,95481.06
2023-04-28T00:10:37.421Z,95490.97
2023-04-28T00:13:24.303Z,95482.38
2023-04-28T00:16:04.327Z,95491.56
2023-04-28T00:18:51.333Z,95488.94
2023-04-28T00:21:31.275Z,95489.63
2023-04-28T00:24:18.300Z,95485.34
2023-04-28T00:26:51.436Z,95489.44
2023-04-28T00:29:38.304Z,95494.41
2023-04-28T00:32:18.301Z,95495.97
2023-04-28T00:35:05.319Z,95494.19
2023-04-28T00:37:50.301Z,95501.66
2023-04-28T00:40:44.300Z,95502.38
2023-04-28T00:43:24.311Z,95498.88
2023-04-28T00:46:18.390Z,95497.94
2023-04-28T00:49:05.330Z,95497.91
2023-04-28T00:51:38.436Z,95501.19
2023-04-28T00:54:25.264Z,95498.50
2023-04-28T00:57:05.290Z,95504.28
2023-04-28T00:59:52.343Z,95504.16
2023-04-28T01:02:25.914Z,95500.75
2023-04-28T01:05:12.302Z,95503.28
2023-04-28T01:07:52.338Z,95499.13
2023-04-28T01:10:39.292Z,95496.59
2023-04-28T01:13:19.330Z,95497.38
2023-04-28T01:16:13.385Z,95498.97
2023-04-28T01:19:07.331Z,95499.63
2023-04-28T01:21:54.384Z,95497.66
2023-04-28T01:24:34.307Z,95502.59
2023-04-28T01:27:30.306Z,95494.91
2023-04-28T01:30:24.303Z,95490.72
2023-04-28T01:33:18.302Z,95493.13
2023-04-28T01:36:12.306Z,95492.16
2023-04-28T01:38:59.331Z,95485.44
2023-04-28T01:41:36.746Z,95487.06
2023-04-28T01:44:23.330Z,95486.34
2023-04-28T01:46:56.481Z,95486.34
2023-04-28T01:49:43.337Z,95484.72
2023-04-28T01:52:16.453Z,95477.81
2023-04-28T01:55:03.324Z,95486.94
2023-04-28T01:57:36.492Z,95486.84
2023-04-28T02:00:23.331Z,95490.91
2023-04-28T02:02:56.550Z,95484.06
2023-04-28T02:05:44.320Z,95486.53
2023-04-28T02:08:24.307Z,95490.66
2023-04-28T02:11:18.315Z,95494.88
2023-04-28T02:14:05.458Z,95495.63
2023-04-28T02:16:39.444Z,95499.72
2023-04-28T02:19:26.305Z,95502.16
2023-04-28T02:21:59.427Z,95502.06
2023-04-28T02:24:46.303Z,95508.78
2023-04-28T02:27:19.446Z,95502.81
2023-04-28T02:30:10.309Z,95506.09
2023-04-28T02:32:43.497Z,95508.56
2023-04-28T02:35:30.347Z,95504.34
2023-04-28T02:38:06.589Z,95508.56
2023-04-28T02:40:53.326Z,95510.22
2023-04-28T02:43:26.495Z,95508.53
2023-04-28T02:46:13.362Z,95502.66
2023-04-28T02:48:46.453Z,95496.00
2023-04-28T02:51:33.334Z,95501.91
2023-04-28T02:54:06.439Z,95506.06
2023-04-28T02:56:53.390Z,95514.25
2023-04-28T02:59:34.353Z,95517.44
2023-04-28T03:02:22.371Z,95519.06
2023-04-28T03:04:55.641Z,95520.59
2023-04-28T03:07:42.322Z,95523.97
2023-04-28T03:10:24.338Z,95523.03
2023-04-28T03:13:11.348Z,95518.72
2023-04-28T03:15:51.361Z,95525.41
2023-04-28T03:18:45.386Z,95537.91
2023-04-28T03:21:39.348Z,95535.44
2023-04-28T03:24:33.345Z,95534.47
2023-04-28T03:27:20.320Z,95539.47
2023-04-28T03:29:53.448Z,95544.66
2023-04-28T03:32:40.408Z,95538.78
2023-04-28T03:35:13.753Z,95542.16
2023-04-28T03:38:00.337Z,95539.69
2023-04-28T03:40:40.346Z,95537.22
2023-04-28T03:43:27.335Z,95542.22
2023-04-28T03:46:14.392Z,95538.78
2023-04-28T03:49:11.382Z,95541.25
2023-04-28T03:51:58.336Z,95541.25
2023-04-28T03:54:31.476Z,95538.72
2023-04-28T03:57:18.360Z,95533.63
2023-04-28T03:59:52.100Z,95541.22
2023-04-28T04:02:38.487Z,95544.53
2023-04-28T04:05:19.443Z,95542.06
2023-04-28T04:08:06.483Z,95542.28
2023-04-28T04:10:39.434Z,95541.50
2023-04-28T04:13:26.392Z,95539.00
2023-04-28T04:15:59.573Z,95543.31
2023-04-28T04:18:46.354Z,95546.59
2023-04-28T04:21:19.457Z,95550.81
2023-04-28T04:24:06.320Z,95544.03
2023-04-28T04:26:39.544Z,95544.03
2023-04-28T04:29:26.353Z,95543.25
2023-04-28T04:32:06.366Z,95544.16
2023-04-28T04:35:00.357Z,95546.81
2023-04-28T04:37:54.332Z,95547.78
2023-04-28T04:40:48.379Z,95552.94
2023-04-28T04:43:42.350Z,95549.88
2023-04-28T04:46:36.380Z,95545.38
2023-04-28T04:49:23.375Z,95543.56
2023-04-28T04:51:59.472Z,95541.56
2023-04-28T04:54:46.375Z,95540.63
2023-04-28T04:57:19.537Z,95540.44
2023-04-28T05:00:06.372Z,95540.22
2023-04-28T05:02:40.625Z,95531.50
2023-04-28T05:05:27.452Z,95532.88
2023-04-28T05:08:00.518Z,95528.22
2023-04-28T05:10:47.365Z,95528.69
2023-04-28T05:13:23.478Z,95529.09
2023-04-28T05:16:10.442Z,95527.81
2023-04-28T05:18:43.468Z,95528.97
2023-04-28T05:21:30.412Z,95530.97
2023-04-28T05:24:10.372Z,95533.78
2023-04-28T05:26:58.381Z,95527.38
2023-04-28T05:29:38.376Z,95525.94
2023-04-28T05:32:32.449Z,95523.69
2023-04-28T05:35:19.388Z,95521.34
2023-04-28T05:37:52.523Z,95515.59
2023-04-28T05:40:39.370Z,95522.59
2023-04-28T05:43:19.387Z,95518.56
2023-04-28T05:46:28.328Z,95522.94
2023-04-28T05:49:23.380Z,95523.09
2023-04-28T05:52:10.373Z,95527.50
2023-04-28T05:54:43.516Z,95528.47
2023-04-28T05:57:32.037Z,95527.72
2023-04-28T06:00:09.490Z,95532.91
2023-04-28T06:02:56.514Z,95531.31
2023-04-28T06:05:29.778Z,95527.16
2023-04-28T06:08:16.389Z,95527.16
2023-04-28T06:10:49.531Z,95529.75
2023-04-28T06:13:36.395Z,95523.88
2023-04-28T06:16:10.532Z,95523.03
2023-04-28T06:18:57.407Z,95522.19
2023-04-28T06:21:38.378Z,95516.22
2023-04-28T06:24:25.422Z,95512.78
2023-04-28T06:27:05.415Z,95516.16
2023-04-28T06:29:59.402Z,95515.25
2023-04-28T06:32:46.460Z,95513.53
2023-04-28T06:35:27.395Z,95513.31
2023-04-28T06:38:21.396Z,95521.69
2023-04-28T06:41:08.429Z,95516.38
2023-04-28T06:43:41.640Z,95513.63
2023-04-28T06:46:35.445Z,95519.31
2023-04-28T06:49:29.413Z,95511.38
2023-04-28T06:52:16.430Z,95507.66
2023-04-28T06:54:56.413Z,95507.34
2023-04-28T06:57:50.411Z,95503.56
2023-04-28T07:00:37.570Z,95500.72
2023-04-28T07:03:15.677Z,95507.09
2023-04-28T07:06:02.425Z,95501.59
2023-04-28T07:08:42.399Z,95497.94
2023-04-28T07:11:30.501Z,95493.25
2023-04-28T07:14:03.551Z,95498.94
2023-04-28T07:16:50.531Z,95497.72
2023-04-28T07:19:23.557Z,95500.78
2023-04-28T07:22:10.456Z,95498.06
2023-04-28T07:24:50.463Z,95495.88
2023-04-28T07:27:44.420Z,95497.72
2023-04-28T07:30:31.512Z,95492.47
2023-04-28T07:33:11.587Z,95495.66
2023-04-28T07:35:59.444Z,95494.44
2023-04-28T07:38:33.112Z,95495.69
2023-04-28T07:41:19.450Z,95496.94
2023-04-28T07:43:59.450Z,95494.25
2023-04-28T07:46:53.422Z,95491.88
2023-04-28T07:49:47.471Z,95486.13
2023-04-28T07:52:41.437Z,95489.03
2023-04-28T07:55:28.440Z,95489.03
2023-04-28T07:58:02.547Z,95471.56
2023-04-28T08:00:49.423Z,95474.25
2023-04-28T08:03:22.814Z,95474.41
2023-04-28T08:06:09.561Z,95463.78
2023-04-28T08:08:49.513Z,95463.91
2023-04-28T08:11:36.569Z,95461.97
2023-04-28T08:14:16.708Z,95458.47
2023-04-28T08:17:03.482Z,95456.84
2023-04-28T08:19:36.607Z,95448.06
2023-04-28T08:22:23.467Z,95456.25
2023-04-28T08:24:56.636Z,95449.75
2023-04-28T08:27:46.523Z,95439.69
2023-04-28T08:30:19.817Z,95448.75
2023-04-28T08:33:07.495Z,95434.28
2023-04-28T08:35:40.610Z,95449.56
2023-04-28T08:38:29.460Z,95435.94
2023-04-28T08:41:02.563Z,95442.69
2023-04-28T08:43:49.467Z,95444.09
2023-04-28T08:46:24.631Z,95431.03
2023-04-28T08:49:15.480Z,95426.38
2023-04-28T08:51:53.563Z,95429.25
2023-04-28T08:54:42.489Z,95425.69
2023-04-28T08:57:17.632Z,95428.44
2023-04-28T09:00:05.488Z,95418.78
2023-04-28T09:02:42.057Z,95423.44
2023-04-28T09:05:29.683Z,95416.13
2023-04-28T09:08:02.659Z,95421.56
2023-04-28T09:10:49.486Z,95422.94
2023-04-28T09:13:33.343Z,95418.19
2023-04-28T09:16:20.554Z,95412.25
2023-04-28T09:19:03.612Z,95402.28
2023-04-28T09:22:07.764Z,95414.28
2023-04-28T09:24:47.564Z,95412.34
2023-04-28T09:27:35.504Z,95411.50
2023-04-28T09:30:16.497Z,95406.34
2023-04-28T09:33:19.570Z,95399.41
2023-04-28T09:36:06.479Z,95392.41
2023-04-28T09:38:57.527Z,95399.19
2023-04-28T09:41:58.485Z,95399.78
2023-04-28T09:44:45.498Z,95391.03
2023-04-28T09:47:34.544Z,95384.81
2023-04-28T09:50:30.529Z,95395.53
2023-04-28T09:53:29.519Z,95387.41
2023-04-28T09:56:26.506Z,95377.81
2023-04-28T09:59:13.510Z,95378.91
2023-04-28T10:01:47.701Z,95373.09
2023-04-28T10:04:37.657Z,95371.09
2023-04-28T10:07:11.224Z,95369.72
2023-04-28T10:09:58.504Z,95358.50
2023-04-28T10:12:39.110Z,95355.00
2023-04-28T10:15:25.616Z,95351.19
2023-04-28T10:18:00.708Z,95353.94
2023-04-28T10:20:53.522Z,95353.03
2023-04-28T10:23:51.934Z,95339.81
2023-04-28T10:27:00.532Z,95337.78
2023-04-28T10:29:34.714Z,95335.00
2023-04-28T10:32:30.548Z,95334.78
2023-04-28T10:35:28.648Z,95332.38
2023-04-28T10:38:23.566Z,95318.94
2023-04-28T10:41:09.564Z,95304.06
2023-04-28T10:44:03.552Z,95319.38
2023-04-28T10:47:15.536Z,95321.66
2023-04-28T10:50:09.554Z,95314.34
2023-04-28T10:52:57.536Z,95305.78
2023-04-28T10:55:39.936Z,95303.78
2023-04-28T10:58:26.555Z,95296.72
2023-04-28T11:00:59.674Z,95290.50
2023-04-28T11:04:05.861Z,95288.84
2023-04-28T11:06:42.701Z,95284.38
2023-04-28T11:09:38.557Z,95278.44
2023-04-28T11:12:13.511Z,95277.03
2023-04-28T11:15:00.553Z,95276.00
2023-04-28T11:17:54.607Z,95261.94
2023-04-28T11:20:49.551Z,95259.75
2023-04-28T11:23:36.609Z,95262.13
2023-04-28T11:26:09.701Z,95262.00
2023-04-28T11:29:02.562Z,95258.38
2023-04-28T11:31:35.802Z,95259.88
2023-04-28T11:34:27.558Z,95262.66
2023-04-28T11:37:00.825Z,95248.91
2023-04-28T11:39:47.558Z,95251.44
2023-04-28T11:42:27.603Z,95252.75
2023-04-28T11:45:26.562Z,95249.69
2023-04-28T11:48:35.583Z,95251.06
2023-04-28T11:51:51.573Z,95244.78
2023-04-28T11:54:38.577Z,95240.34
2023-04-28T11:57:12.752Z,95242.44
2023-04-28T11:59:59.574Z,95236.81
2023-04-28T12:02:38.615Z,95237.59
2023-04-28T12:05:28.631Z,95241.28
2023-04-28T12:08:08.563Z,95243.09
2023-04-28T12:11:20.354Z,95226.38
2023-04-28T12:14:17.575Z,95218.28
2023-04-28T12:17:11.606Z,95222.06
2023-04-28T12:20:01.608Z,95213.69
2023-04-28T12:22:35.794Z,95221.38
2023-04-28T12:25:24.600Z,95214.94
2023-04-28T12:28:15.324Z,95215.16
2023-04-28T12:31:11.620Z,95212.91
2023-04-28T12:33:44.958Z,95202.06
2023-04-28T12:36:31.620Z,95202.19
2023-04-28T12:39:11.613Z,95195.66
2023-04-28T12:42:06.728Z,95184.47
2023-04-28T12:45:00.605Z,95184.00
2023-04-28T12:47:54.624Z,95179.31
2023-04-28T12:50:48.610Z,95173.69
2023-04-28T12:53:42.648Z,95171.25
2023-04-28T12:56:30.630Z,95166.03
2023-04-28T12:59:11.600Z,95165.44
2023-04-28T13:02:05.645Z,95161.09
2023-04-28T13:04:55.786Z,95156.97
2023-04-28T13:07:35.613Z,95150.78
2023-04-28T13:10:30.618Z,95156.97
2023-04-28T13:13:24.643Z,95148.66
2023-04-28T13:16:12.683Z,95143.69
2023-04-28T13:18:45.759Z,95147.88
2023-04-28T13:21:33.636Z,95146.13
2023-04-28T13:24:13.632Z,95141.97
2023-04-28T13:27:02.656Z,95134.31
2023-04-28T13:29:43.630Z,95140.25
2023-04-28T13:32:30.649Z,95126.44
2023-04-28T13:35:10.635Z,95130.97
2023-04-28T13:38:02.661Z,95124.31
2023-04-28T13:40:42.647Z,95131.13
2023-04-28T13:43:29.623Z,95133.50
2023-04-28T13:46:14.684Z,95121.34
2023-04-28T13:49:08.641Z,95132.16
2023-04-28T13:51:55.622Z,95136.34
2023-04-28T13:54:28.908Z,95132.91
2023-04-28T13:57:15.655Z,95126.16
2023-04-28T13:59:48.817Z,95118.69
2023-04-28T14:02:36.575Z,95113.59
2023-04-28T14:05:16.630Z,95110.81
2023-04-28T14:08:03.659Z,95104.31
2023-04-28T14:10:36.746Z,95099.75
2023-04-28T14:13:24.689Z,95099.78
2023-04-28T14:15:59.781Z,95095.47
2023-04-28T14:18:46.670Z,95092.06
2023-04-28T14:21:19.852Z,95089.59
2023-04-28T14:24:06.661Z,95088.13
2023-04-28T14:26:39.950Z,95080.59
2023-04-28T14:29:26.640Z,95079.97
2023-04-28T14:32:06.665Z,95079.22
2023-04-28T14:35:03.653Z,95074.28
2023-04-28T14:37:57.682Z,95075.22
2023-04-28T14:40:51.663Z,95069.34
2023-04-28T14:43:38.682Z,95072.81
2023-04-28T14:46:11.939Z,95072.81
2023-04-28T14:49:05.691Z,95067.91
2023-04-28T14:51:59.667Z,95068.81
2023-04-28T14:54:46.761Z,95064.63
2023-04-28T14:57:20.322Z,95065.59
2023-04-28T15:00:06.649Z,95055.44
2023-04-28T15:02:47.787Z,95063.16
2023-04-28T15:05:41.693Z,95058.84
2023-04-28T15:08:30.024Z,95070.28
2023-04-28T15:11:06.735Z,95068.03
2023-04-28T15:13:53.695Z,95068.03
2023-04-28T15:16:28.841Z,95068.13
2023-04-28T15:19:15.714Z,95055.28
2023-04-28T15:21:48.818Z,95058.75
2023-04-28T15:24:35.680Z,95056.22
2023-04-28T15:27:09.098Z,95047.72
2023-04-28T15:29:57.767Z,95051.19
2023-04-28T15:32:32.571Z,95047.69
2023-04-28T15:35:19.722Z,95048.59
2023-04-28T15:37:55.548Z,95055.56
2023-04-28T15:40:42.684Z,95050.44
2023-04-28T15:43:22.713Z,95054.81
2023-04-28T15:46:23.780Z,95057.75
2023-04-28T15:49:17.695Z,95054.66
2023-04-28T15:52:11.701Z,95047.06
2023-04-28T15:54:58.707Z,95053.09
2023-04-28T15:57:31.896Z,95055.00
2023-04-28T16:00:21.701Z,95047.38
2023-04-28T16:02:55.109Z,95038.94
2023-04-28T16:05:41.705Z,95042.59
2023-04-28T16:08:16.755Z,95041.81
2023-04-28T16:11:03.704Z,95042.03
2023-04-28T16:13:43.821Z,95043.00
2023-04-28T16:16:31.780Z,95038.00
2023-04-28T16:19:04.832Z,95045.75
2023-04-28T16:21:51.706Z,95050.19
2023-04-28T16:24:25.219Z,95039.22
2023-04-28T16:27:12.724Z,95044.47
2023-04-28T16:29:46.102Z,95036.00
2023-04-28T16:32:33.855Z,95031.00
2023-04-28T16:35:11.202Z,95032.09
2023-04-28T16:37:51.838Z,95033.25
2023-04-28T16:40:31.920Z,95041.78
2023-04-28T16:43:11.740Z,95030.69
2023-04-28T16:45:52.001Z,95024.84
2023-04-28T16:48:38.731Z,95028.25
2023-04-28T16:51:18.732Z,95024.97
2023-04-28T16:54:12.828Z,95031.91
2023-04-28T16:57:06.735Z,95028.72
2023-04-28T17:00:00.726Z,95025.50
2023-04-28T17:02:47.864Z,95023.09
2023-04-28T17:05:21.252Z,95017.22
2023-04-28T17:08:07.760Z,95019.81
2023-04-28T17:10:43.952Z,95016.53
2023-04-28T17:13:30.720Z,95018.44
2023-04-28T17:16:10.804Z,95015.06
2023-04-28T17:19:05.423Z,95010.06
2023-04-28T17:21:52.827Z,95011.97
2023-04-28T17:24:26.068Z,95011.19
2023-04-28T17:27:12.758Z,95009.66
2023-04-28T17:29:53.347Z,95019.06
2023-04-28T17:32:39.746Z,95017.50
2023-04-28T17:35:21.802Z,95009.13
2023-04-28T17:38:15.768Z,95006.66
2023-04-28T17:41:02.860Z,94999.22
2023-04-28T17:43:37.711Z,94991.72
2023-04-28T17:46:24.813Z,95001.19
2023-04-28T17:49:05.761Z,95007.31
2023-04-28T17:51:59.758Z,95008.34
2023-04-28T17:54:53.774Z,95004.16
2023-04-28T17:57:40.757Z,95010.31
2023-04-28T18:00:15.062Z,95017.28
2023-04-28T18:03:02.793Z,95030.19
2023-04-28T18:05:42.749Z,95029.38
2023-04-28T18:08:36.957Z,95024.50
2023-04-28T18:11:30.833Z,95019.59
2023-04-28T18:14:17.770Z,95024.91
2023-04-28T18:16:51.332Z,95022.53
2023-04-28T18:19:37.802Z,95026.94
2023-04-28T18:22:10.962Z,95028.72
2023-04-28T18:24:57.773Z,95027.13
2023-04-28T18:27:37.789Z,95023.03
2023-04-28T18:30:24.773Z,95019.00
2023-04-28T18:32:58.297Z,95024.31
2023-04-28T18:35:46.731Z,95021.09
2023-04-28T18:38:20.409Z,95028.91
2023-04-28T18:41:08.828Z,95022.22
2023-04-28T18:43:42.391Z,95021.53
2023-04-28T18:46:28.919Z,95018.19
2023-04-28T18:49:06.589Z,95021.63
2023-04-28T18:51:53.863Z,95019.16
2023-04-28T18:54:28.408Z,95033.72
2023-04-28T18:57:15.780Z,95024.47
2023-04-28T18:59:55.788Z,95023.75
2023-04-28T19:02:49.946Z,95022.16
2023-04-28T19:05:36.840Z,95023.94
2023-04-28T19:08:17.811Z,95024.03
2023-04-28T19:11:12.833Z,95030.03
2023-04-28T19:14:01.793Z,95025.88
2023-04-28T19:16:36.829Z,95034.47
2023-04-28T19:19:23.813Z,95030.31
2023-04-28T19:21:58.001Z,95033.75
2023-04-28T19:24:44.831Z,95032.09
2023-04-28T19:27:17.964Z,95031.34
2023-04-28T19:30:08.855Z,95033.09
2023-04-28T19:32:43.033Z,95031.44
2023-04-28T19:35:29.843Z,95035.75
2023-04-28T19:38:03.961Z,95033.22
2023-04-28T19:40:51.805Z,95035.03
2023-04-28T19:43:24.971Z,95032.53
2023-04-28T19:46:11.941Z,95028.31
2023-04-28T19:48:46.610Z,95024.97
2023-04-28T19:51:34.836Z,95024.16
2023-04-28T19:54:07.953Z,95025.06
2023-04-28T19:56:55.808Z,95026.78
2023-04-28T19:59:30.057Z,95026.88
2023-04-28T20:02:16.895Z,95017.59
2023-04-28T20:04:56.868Z,95023.56
2023-04-28T20:07:56.220Z,95027.00
2023-04-28T20:10:42.844Z,95019.41
2023-04-28T20:13:17.954Z,95022.81
2023-04-28T20:16:04.848Z,95027.13
2023-04-28T20:18:38.239Z,95024.59
2023-04-28T20:21:24.838Z,95032.28
2023-04-28T20:24:04.840Z,95028.06
2023-04-28T20:26:51.880Z,95033.19
2023-04-28T20:29:25.306Z,95025.59
2023-04-28T20:32:11.878Z,95034.94
2023-04-28T20:34:45.041Z,95039.19
2023-04-28T20:37:32.843Z,95030.75
2023-04-28T20:40:06.722Z,95032.47
2023-04-28T20:42:53.862Z,95035.06
2023-04-28T20:45:41.896Z,95034.22
2023-04-28T20:48:36.839Z,95031.72
2023-04-28T20:51:23.942Z,95029.16
2023-04-28T20:53:57.728Z,95031.72
2023-04-28T20:56:44.861Z,95030.06
2023-04-28T20:59:25.922Z,95023.28
2023-04-28T21:02:19.978Z,95032.63
2023-04-28T21:05:06.857Z,95030.09
2023-04-28T21:07:39.971Z,95035.22
2023-04-28T21:10:26.868Z,95031.84
2023-04-28T21:12:59.970Z,95030.16
2023-04-28T21:15:47.946Z,95025.94
2023-04-28T21:18:21.084Z,95031.06
2023-04-28T21:21:07.868Z,95023.41
2023-04-28T21:23:41.061Z,95030.19
2023-04-28T21:26:28.874Z,95033.59
2023-04-28T21:29:02.161Z,95026.84
2023-04-28T21:31:48.976Z,95037.88
2023-04-28T21:34:21.998Z,95031.09
2023-04-28T21:37:08.862Z,95035.34
2023-04-28T21:39:42.035Z,95030.25
2023-04-28T21:42:28.943Z,95028.56
2023-04-28T21:45:08.861Z,95024.34
2023-04-28T21:48:04.000Z,95026.91
2023-04-28T21:50:57.871Z,95029.44
2023-04-28T21:53:51.872Z,95028.59
2023-04-28T21:56:38.872Z,95022.69
2023-04-28T21:59:11.973Z,95021.00
2023-04-28T22:01:58.876Z,95011.69
2023-04-28T22:04:35.528Z,95010.03
2023-04-28T22:07:21.929Z,95010.03
2023-04-28T22:09:57.036Z,95004.09
2023-04-28T22:12:43.870Z,95003.25
2023-04-28T22:15:17.023Z,95010.88
2023-04-28T22:18:04.918Z,95001.59
2023-04-28T22:20:44.935Z,95002.41
2023-04-28T22:23:38.942Z,95001.59
2023-04-28T22:26:26.844Z,95000.75
2023-04-28T22:29:00.284Z,94998.22
2023-04-28T22:31:46.912Z,94988.06
2023-04-28T22:34:20.012Z,94993.16
2023-04-28T22:37:06.938Z,94982.97
2023-04-28T22:39:42.759Z,94992.31
2023-04-28T22:42:29.916Z,94986.38
2023-04-28T22:45:04.432Z,94990.63
2023-04-28T22:47:50.951Z,94983.81
2023-04-28T22:50:30.869Z,94983.81
2023-04-28T22:53:25.936Z,94988.06
2023-04-28T22:56:19.920Z,94979.63
2023-04-28T22:59:13.920Z,94985.53
2023-04-28T23:02:01.010Z,94977.09
2023-04-28T23:04:34.580Z,94976.25
2023-04-28T23:07:21.914Z,94979.66
2023-04-28T23:09:55.037Z,94978.81
2023-04-28T23:12:41.919Z,94977.13
2023-04-28T23:15:17.081Z,94968.66
2023-04-28T23:18:03.950Z,94974.59
2023-04-28T23:20:40.047Z,94970.38
2023-04-28T23:23:26.954Z,94968.69
2023-04-28T23:26:00.327Z,94971.25
2023-04-28T23:28:46.946Z,94972.91
2023-04-28T23:31:27.009Z,94973.75
2023-04-28T23:34:13.920Z,94974.59
2023-04-28T23:36:47.100Z,94972.91
2023-04-28T23:39:36.941Z,94967.00
2023-04-28T23:42:16.945Z,94965.28
2023-04-28T23:45:10.990Z,94961.09
2023-04-28T23:47:57.958Z,94970.38
2023-04-28T23:50:31.046Z,94965.31
2023-04-28T23:53:17.927Z,94967.84
2023-04-28T23:55:51.032Z,94970.34
2023-04-28T23:58:37.976Z,94964.47
